sensor_id;sensor_type;location;lat;lon;timestamp;P1;durP1;ratioP1;P2;durP2;ratioP2
6791;SDS011;3433;48.730;9.108;2023-03-03T00:00:41;49.63;;;23.63;;
6791;SDS011;3433;48.730;9.108;2023-03-03T00:03:29;51.90;;;25.00;;
6791;SDS011;3433;48.730;9.108;2023-03-03T00:06:18;48.97;;;23.63;;
6791;SDS011;3433;48.730;9.108;2023-03-03T00:09:06;53.97;;;24.97;;
6791;SDS011;3433;48.730;9.108;2023-03-03T00:11:53;50.37;;;22.83;;
6791;SDS011;3433;48.730;9.108;2023-03-03T00:14:44;47.93;;;22.63;;
6791;SDS011;3433;48.730;9.108;2023-03-03T00:17:32;53.17;;;25.03;;
6791;SDS011;3433;48.730;9.108;2023-03-03T00:20:21;51.70;;;24.20;;
6791;SDS011;3433;48.730;9.108;2023-03-03T00:23:20;53.70;;;23.40;;
6791;SDS011;3433;48.730;9.108;2023-03-03T00:26:15;47.07;;;23.73;;
6791;SDS011;3433;48.730;9.108;2023-03-03T00:29:22;47.27;;;22.83;;
6791;SDS011;3433;48.730;9.108;2023-03-03T00:32:17;40.20;;;21.27;;
6791;SDS011;3433;48.730;9.108;2023-03-03T00:35:18;43.80;;;22.77;;
6791;SDS011;3433;48.730;9.108;2023-03-03T00:38:11;53.27;;;23.07;;
6791;SDS011;3433;48.730;9.108;2023-03-03T00:41:05;41.43;;;20.87;;
6791;SDS011;3433;48.730;9.108;2023-03-03T00:44:02;45.03;;;22.07;;
6791;SDS011;3433;48.730;9.108;2023-03-03T00:47:23;45.10;;;21.47;;
6791;SDS011;3433;48.730;9.108;2023-03-03T00:50:26;43.83;;;21.63;;
6791;SDS011;3433;48.730;9.108;2023-03-03T00:53:15;49.67;;;22.43;;
6791;SDS011;3433;48.730;9.108;2023-03-03T00:56:05;39.70;;;22.67;;
6791;SDS011;3433;48.730;9.108;2023-03-03T00:58:53;43.33;;;21.53;;
6791;SDS011;3433;48.730;9.108;2023-03-03T01:01:40;41.30;;;21.27;;
6791;SDS011;3433;48.730;9.108;2023-03-03T01:04:27;42.63;;;21.13;;
6791;SDS011;3433;48.730;9.108;2023-03-03T01:07:14;47.70;;;21.97;;
6791;SDS011;3433;48.730;9.108;2023-03-03T01:10:01;44.97;;;22.33;;
6791;SDS011;3433;48.730;9.108;2023-03-03T01:12:50;46.50;;;22.10;;
6791;SDS011;3433;48.730;9.108;2023-03-03T01:15:38;40.57;;;21.20;;
6791;SDS011;3433;48.730;9.108;2023-03-03T01:18:25;41.10;;;21.53;;
6791;SDS011;3433;48.730;9.108;2023-03-03T01:21:13;43.53;;;20.40;;
6791;SDS011;3433;48.730;9.108;2023-03-03T01:24:00;41.17;;;20.20;;
6791;SDS011;3433;48.730;9.108;2023-03-03T01:26:47;43.07;;;21.07;;
6791;SDS011;3433;48.730;9.108;2023-03-03T01:29:36;47.83;;;20.30;;
6791;SDS011;3433;48.730;9.108;2023-03-03T01:32:23;40.90;;;20.23;;
6791;SDS011;3433;48.730;9.108;2023-03-03T01:35:10;44.40;;;20.10;;
6791;SDS011;3433;48.730;9.108;2023-03-03T01:37:58;40.37;;;20.00;;
6791;SDS011;3433;48.730;9.108;2023-03-03T01:40:50;44.30;;;21.10;;
6791;SDS011;3433;48.730;9.108;2023-03-03T01:43:42;38.13;;;18.67;;
6791;SDS011;3433;48.730;9.108;2023-03-03T01:46:34;42.33;;;20.03;;
6791;SDS011;3433;48.730;9.108;2023-03-03T01:49:32;44.50;;;21.10;;
6791;SDS011;3433;48.730;9.108;2023-03-03T01:52:23;40.50;;;19.80;;
6791;SDS011;3433;48.730;9.108;2023-03-03T01:55:13;41.17;;;19.43;;
6791;SDS011;3433;48.730;9.108;2023-03-03T01:58:06;42.60;;;21.70;;
6791;SDS011;3433;48.730;9.108;2023-03-03T02:00:57;40.53;;;19.63;;
6791;SDS011;3433;48.730;9.108;2023-03-03T02:03:49;45.57;;;21.40;;
6791;SDS011;3433;48.730;9.108;2023-03-03T02:06:39;42.30;;;20.03;;
6791;SDS011;3433;48.730;9.108;2023-03-03T02:09:32;46.77;;;21.13;;
6791;SDS011;3433;48.730;9.108;2023-03-03T02:12:27;45.57;;;20.80;;
6791;SDS011;3433;48.730;9.108;2023-03-03T02:15:20;51.10;;;20.53;;
6791;SDS011;3433;48.730;9.108;2023-03-03T02:18:10;43.23;;;20.77;;
6791;SDS011;3433;48.730;9.108;2023-03-03T02:21:01;47.77;;;21.40;;
6791;SDS011;3433;48.730;9.108;2023-03-03T02:23:54;46.57;;;21.57;;
6791;SDS011;3433;48.730;9.108;2023-03-03T02:26:50;43.83;;;21.07;;
6791;SDS011;3433;48.730;9.108;2023-03-03T02:29:37;47.53;;;20.97;;
6791;SDS011;3433;48.730;9.108;2023-03-03T02:32:24;40.00;;;19.50;;
6791;SDS011;3433;48.730;9.108;2023-03-03T02:35:28;41.97;;;21.63;;
6791;SDS011;3433;48.730;9.108;2023-03-03T02:38:18;42.30;;;19.17;;
6791;SDS011;3433;48.730;9.108;2023-03-03T02:41:10;46.10;;;20.07;;
6791;SDS011;3433;48.730;9.108;2023-03-03T02:44:04;43.53;;;21.27;;
6791;SDS011;3433;48.730;9.108;2023-03-03T02:46:53;53.80;;;22.50;;
6791;SDS011;3433;48.730;9.108;2023-03-03T02:49:41;44.33;;;21.20;;
6791;SDS011;3433;48.730;9.108;2023-03-03T02:52:29;46.40;;;21.77;;
6791;SDS011;3433;48.730;9.108;2023-03-03T02:55:16;44.93;;;20.67;;
6791;SDS011;3433;48.730;9.108;2023-03-03T02:58:03;45.47;;;21.20;;
6791;SDS011;3433;48.730;9.108;2023-03-03T03:00:52;47.40;;;22.10;;
6791;SDS011;3433;48.730;9.108;2023-03-03T03:03:40;49.63;;;23.20;;
6791;SDS011;3433;48.730;9.108;2023-03-03T03:06:27;47.70;;;21.80;;
6791;SDS011;3433;48.730;9.108;2023-03-03T03:09:14;49.40;;;22.10;;
6791;SDS011;3433;48.730;9.108;2023-03-03T03:12:02;44.00;;;21.10;;
6791;SDS011;3433;48.730;9.108;2023-03-03T03:14:50;51.83;;;24.17;;
6791;SDS011;3433;48.730;9.108;2023-03-03T03:17:38;49.63;;;22.37;;
6791;SDS011;3433;48.730;9.108;2023-03-03T03:20:26;47.97;;;21.90;;
6791;SDS011;3433;48.730;9.108;2023-03-03T03:23:13;46.13;;;22.50;;
6791;SDS011;3433;48.730;9.108;2023-03-03T03:26:01;49.73;;;22.27;;
6791;SDS011;3433;48.730;9.108;2023-03-03T03:28:48;48.20;;;22.40;;
6791;SDS011;3433;48.730;9.108;2023-03-03T03:31:36;53.40;;;23.70;;
6791;SDS011;3433;48.730;9.108;2023-03-03T03:34:25;46.17;;;22.13;;
6791;SDS011;3433;48.730;9.108;2023-03-03T03:37:12;50.67;;;22.80;;
6791;SDS011;3433;48.730;9.108;2023-03-03T03:39:59;51.03;;;23.37;;
6791;SDS011;3433;48.730;9.108;2023-03-03T03:42:47;46.73;;;22.17;;
6791;SDS011;3433;48.730;9.108;2023-03-03T03:45:34;52.40;;;23.77;;
6791;SDS011;3433;48.730;9.108;2023-03-03T03:48:21;52.03;;;22.50;;
6791;SDS011;3433;48.730;9.108;2023-03-03T03:51:10;57.37;;;23.90;;
6791;SDS011;3433;48.730;9.108;2023-03-03T03:53:57;52.67;;;24.27;;
6791;SDS011;3433;48.730;9.108;2023-03-03T03:56:44;48.60;;;24.67;;
6791;SDS011;3433;48.730;9.108;2023-03-03T03:59:32;57.17;;;25.23;;
6791;SDS011;3433;48.730;9.108;2023-03-03T04:02:19;57.87;;;26.30;;
6791;SDS011;3433;48.730;9.108;2023-03-03T04:05:06;54.90;;;25.60;;
6791;SDS011;3433;48.730;9.108;2023-03-03T04:07:55;51.83;;;25.40;;
6791;SDS011;3433;48.730;9.108;2023-03-03T04:10:43;57.80;;;26.53;;
6791;SDS011;3433;48.730;9.108;2023-03-03T04:13:30;54.23;;;25.87;;
6791;SDS011;3433;48.730;9.108;2023-03-03T04:16:19;59.37;;;26.70;;
6791;SDS011;3433;48.730;9.108;2023-03-03T04:19:06;55.47;;;25.40;;
6791;SDS011;3433;48.730;9.108;2023-03-03T04:21:53;59.57;;;25.67;;
6791;SDS011;3433;48.730;9.108;2023-03-03T04:24:42;64.53;;;28.20;;
6791;SDS011;3433;48.730;9.108;2023-03-03T04:27:29;57.60;;;26.17;;
6791;SDS011;3433;48.730;9.108;2023-03-03T04:30:17;52.63;;;26.40;;
6791;SDS011;3433;48.730;9.108;2023-03-03T04:33:04;64.23;;;28.27;;
6791;SDS011;3433;48.730;9.108;2023-03-03T04:35:51;64.57;;;28.67;;
6791;SDS011;3433;48.730;9.108;2023-03-03T04:38:38;57.73;;;28.40;;
6791;SDS011;3433;48.730;9.108;2023-03-03T04:41:27;65.47;;;26.80;;
6791;SDS011;3433;48.730;9.108;2023-03-03T04:44:14;52.47;;;26.10;;
6791;SDS011;3433;48.730;9.108;2023-03-03T04:47:01;59.73;;;28.13;;
6791;SDS011;3433;48.730;9.108;2023-03-03T04:49:49;61.37;;;28.33;;
6791;SDS011;3433;48.730;9.108;2023-03-03T04:52:36;63.13;;;28.30;;
6791;SDS011;3433;48.730;9.108;2023-03-03T04:55:24;56.17;;;27.87;;
6791;SDS011;3433;48.730;9.108;2023-03-03T04:58:12;66.17;;;29.10;;
6791;SDS011;3433;48.730;9.108;2023-03-03T05:01:00;60.07;;;28.13;;
6791;SDS011;3433;48.730;9.108;2023-03-03T05:03:48;57.70;;;27.50;;
6791;SDS011;3433;48.730;9.108;2023-03-03T05:06:35;62.60;;;28.10;;
6791;SDS011;3433;48.730;9.108;2023-03-03T05:09:22;59.63;;;27.00;;
6791;SDS011;3433;48.730;9.108;2023-03-03T05:12:09;57.50;;;27.63;;
6791;SDS011;3433;48.730;9.108;2023-03-03T05:14:58;54.83;;;25.77;;
6791;SDS011;3433;48.730;9.108;2023-03-03T05:17:45;59.73;;;28.87;;
6791;SDS011;3433;48.730;9.108;2023-03-03T05:20:33;61.23;;;27.93;;
6791;SDS011;3433;48.730;9.108;2023-03-03T05:23:20;57.60;;;26.50;;
6791;SDS011;3433;48.730;9.108;2023-03-03T05:26:08;62.73;;;28.77;;
6791;SDS011;3433;48.730;9.108;2023-03-03T05:28:55;57.43;;;27.33;;
6791;SDS011;3433;48.730;9.108;2023-03-03T05:31:43;58.43;;;27.47;;
6791;SDS011;3433;48.730;9.108;2023-03-03T05:34:31;55.63;;;26.30;;
6791;SDS011;3433;48.730;9.108;2023-03-03T05:37:18;57.90;;;27.90;;
6791;SDS011;3433;48.730;9.108;2023-03-03T05:40:06;62.83;;;29.33;;
6791;SDS011;3433;48.730;9.108;2023-03-03T05:42:54;62.77;;;27.57;;
6791;SDS011;3433;48.730;9.108;2023-03-03T05:45:42;58.40;;;27.33;;
6791;SDS011;3433;48.730;9.108;2023-03-03T05:48:31;63.00;;;29.30;;
6791;SDS011;3433;48.730;9.108;2023-03-03T05:51:18;58.30;;;27.90;;
6791;SDS011;3433;48.730;9.108;2023-03-03T05:54:05;60.07;;;27.83;;
6791;SDS011;3433;48.730;9.108;2023-03-03T05:56:52;68.13;;;27.23;;
6791;SDS011;3433;48.730;9.108;2023-03-03T05:59:41;68.67;;;28.43;;
6791;SDS011;3433;48.730;9.108;2023-03-03T06:02:28;56.57;;;26.80;;
6791;SDS011;3433;48.730;9.108;2023-03-03T06:05:17;65.93;;;28.33;;
6791;SDS011;3433;48.730;9.108;2023-03-03T06:08:04;62.10;;;26.67;;
6791;SDS011;3433;48.730;9.108;2023-03-03T06:10:51;54.40;;;27.00;;
6791;SDS011;3433;48.730;9.108;2023-03-03T06:13:39;60.50;;;25.90;;
6791;SDS011;3433;48.730;9.108;2023-03-03T06:16:27;62.97;;;27.33;;
6791;SDS011;3433;48.730;9.108;2023-03-03T06:19:14;62.73;;;27.60;;
6791;SDS011;3433;48.730;9.108;2023-03-03T06:22:02;63.20;;;27.80;;
6791;SDS011;3433;48.730;9.108;2023-03-03T06:24:50;59.47;;;26.90;;
6791;SDS011;3433;48.730;9.108;2023-03-03T06:27:37;56.10;;;27.20;;
6791;SDS011;3433;48.730;9.108;2023-03-03T06:30:25;65.63;;;28.43;;
6791;SDS011;3433;48.730;9.108;2023-03-03T06:33:12;63.13;;;28.50;;
6791;SDS011;3433;48.730;9.108;2023-03-03T06:35:59;42.60;;;19.90;;
6791;SDS011;3433;48.730;9.108;2023-03-03T06:38:48;58.70;;;21.87;;
6791;SDS011;3433;48.730;9.108;2023-03-03T06:41:36;117.53;;;41.80;;
6791;SDS011;3433;48.730;9.108;2023-03-03T06:44:23;77.50;;;32.13;;
6791;SDS011;3433;48.730;9.108;2023-03-03T06:47:10;79.50;;;33.47;;
6791;SDS011;3433;48.730;9.108;2023-03-03T06:49:57;83.83;;;36.50;;
6791;SDS011;3433;48.730;9.108;2023-03-03T06:52:45;65.53;;;30.80;;
6791;SDS011;3433;48.730;9.108;2023-03-03T06:55:36;73.13;;;30.57;;
6791;SDS011;3433;48.730;9.108;2023-03-03T06:58:24;59.40;;;29.33;;
6791;SDS011;3433;48.730;9.108;2023-03-03T07:01:14;57.80;;;26.00;;
6791;SDS011;3433;48.730;9.108;2023-03-03T07:04:06;49.97;;;25.03;;
6791;SDS011;3433;48.730;9.108;2023-03-03T07:06:59;55.00;;;25.80;;
6791;SDS011;3433;48.730;9.108;2023-03-03T07:09:59;57.07;;;25.50;;
6791;SDS011;3433;48.730;9.108;2023-03-03T07:12:47;62.77;;;28.47;;
6791;SDS011;3433;48.730;9.108;2023-03-03T07:15:35;60.37;;;27.20;;
6791;SDS011;3433;48.730;9.108;2023-03-03T07:18:25;58.57;;;27.47;;
6791;SDS011;3433;48.730;9.108;2023-03-03T07:21:21;59.33;;;25.80;;
6791;SDS011;3433;48.730;9.108;2023-03-03T07:24:15;57.17;;;26.03;;
6791;SDS011;3433;48.730;9.108;2023-03-03T07:27:11;57.53;;;25.67;;
6791;SDS011;3433;48.730;9.108;2023-03-03T07:30:17;52.50;;;23.90;;
6791;SDS011;3433;48.730;9.108;2023-03-03T07:33:13;52.30;;;24.73;;
6791;SDS011;3433;48.730;9.108;2023-03-03T07:36:18;53.80;;;28.40;;
6791;SDS011;3433;48.730;9.108;2023-03-03T07:39:20;43.30;;;22.00;;
6791;SDS011;3433;48.730;9.108;2023-03-03T07:42:19;47.27;;;22.80;;
6791;SDS011;3433;48.730;9.108;2023-03-03T07:45:21;43.80;;;22.20;;
6791;SDS011;3433;48.730;9.108;2023-03-03T07:48:15;43.30;;;22.40;;
6791;SDS011;3433;48.730;9.108;2023-03-03T07:51:18;43.83;;;20.43;;
6791;SDS011;3433;48.730;9.108;2023-03-03T07:54:19;45.53;;;22.80;;
6791;SDS011;3433;48.730;9.108;2023-03-03T07:57:18;45.27;;;22.03;;
6791;SDS011;3433;48.730;9.108;2023-03-03T08:03:30;46.67;;;22.47;;
6791;SDS011;3433;48.730;9.108;2023-03-03T08:06:36;45.40;;;21.10;;
6791;SDS011;3433;48.730;9.108;2023-03-03T08:12:37;46.63;;;21.77;;
6791;SDS011;3433;48.730;9.108;2023-03-03T08:15:27;46.60;;;22.80;;
6791;SDS011;3433;48.730;9.108;2023-03-03T08:18:21;44.77;;;21.97;;
6791;SDS011;3433;48.730;9.108;2023-03-03T08:21:11;40.60;;;21.30;;
6791;SDS011;3433;48.730;9.108;2023-03-03T08:24:00;47.10;;;22.10;;
6791;SDS011;3433;48.730;9.108;2023-03-03T08:26:47;43.97;;;21.80;;
6791;SDS011;3433;48.730;9.108;2023-03-03T08:29:35;44.10;;;21.23;;
6791;SDS011;3433;48.730;9.108;2023-03-03T08:32:22;45.13;;;22.60;;
6791;SDS011;3433;48.730;9.108;2023-03-03T08:35:10;47.87;;;23.13;;
6791;SDS011;3433;48.730;9.108;2023-03-03T08:37:58;46.73;;;23.70;;
6791;SDS011;3433;48.730;9.108;2023-03-03T08:40:45;45.40;;;22.63;;
6791;SDS011;3433;48.730;9.108;2023-03-03T08:43:33;40.70;;;21.63;;
6791;SDS011;3433;48.730;9.108;2023-03-03T08:46:20;46.10;;;24.03;;
6791;SDS011;3433;48.730;9.108;2023-03-03T08:49:08;45.93;;;22.60;;
6791;SDS011;3433;48.730;9.108;2023-03-03T08:51:55;41.23;;;22.30;;
6791;SDS011;3433;48.730;9.108;2023-03-03T08:54:43;43.60;;;22.10;;
6791;SDS011;3433;48.730;9.108;2023-03-03T08:57:31;44.47;;;24.40;;
6791;SDS011;3433;48.730;9.108;2023-03-03T09:00:18;49.03;;;22.50;;
6791;SDS011;3433;48.730;9.108;2023-03-03T09:03:06;50.50;;;24.20;;
6791;SDS011;3433;48.730;9.108;2023-03-03T09:05:53;55.40;;;25.73;;
6791;SDS011;3433;48.730;9.108;2023-03-03T09:08:40;48.93;;;23.43;;
6791;SDS011;3433;48.730;9.108;2023-03-03T09:11:29;45.03;;;23.70;;
6791;SDS011;3433;48.730;9.108;2023-03-03T09:14:17;46.30;;;23.70;;
6791;SDS011;3433;48.730;9.108;2023-03-03T09:17:07;48.57;;;24.97;;
6791;SDS011;3433;48.730;9.108;2023-03-03T09:20:22;50.80;;;25.17;;
6791;SDS011;3433;48.730;9.108;2023-03-03T09:23:21;50.20;;;27.20;;
6791;SDS011;3433;48.730;9.108;2023-03-03T09:26:23;48.07;;;24.87;;
6791;SDS011;3433;48.730;9.108;2023-03-03T09:29:17;50.93;;;24.67;;
6791;SDS011;3433;48.730;9.108;2023-03-03T09:32:16;53.50;;;25.47;;
6791;SDS011;3433;48.730;9.108;2023-03-03T09:35:25;49.67;;;24.73;;
6791;SDS011;3433;48.730;9.108;2023-03-03T09:38:24;44.67;;;24.60;;
6791;SDS011;3433;48.730;9.108;2023-03-03T09:45:00;45.50;;;25.30;;
6791;SDS011;3433;48.730;9.108;2023-03-03T09:48:30;48.87;;;23.80;;
6791;SDS011;3433;48.730;9.108;2023-03-03T09:51:44;52.70;;;25.23;;
6791;SDS011;3433;48.730;9.108;2023-03-03T09:54:48;45.40;;;24.17;;
6791;SDS011;3433;48.730;9.108;2023-03-03T09:57:50;47.83;;;26.73;;
6791;SDS011;3433;48.730;9.108;2023-03-03T10:00:53;45.87;;;24.37;;
6791;SDS011;3433;48.730;9.108;2023-03-03T10:04:02;56.83;;;25.80;;
6791;SDS011;3433;48.730;9.108;2023-03-03T10:07:05;50.43;;;26.17;;
6791;SDS011;3433;48.730;9.108;2023-03-03T10:10:15;45.47;;;24.27;;
6791;SDS011;3433;48.730;9.108;2023-03-03T10:13:18;47.87;;;22.27;;
6791;SDS011;3433;48.730;9.108;2023-03-03T10:16:18;42.97;;;22.40;;
6791;SDS011;3433;48.730;9.108;2023-03-03T10:19:16;42.10;;;23.40;;
6791;SDS011;3433;48.730;9.108;2023-03-03T10:22:19;39.70;;;21.90;;
6791;SDS011;3433;48.730;9.108;2023-03-03T10:25:14;49.47;;;22.60;;
6791;SDS011;3433;48.730;9.108;2023-03-03T10:31:34;37.13;;;21.33;;
6791;SDS011;3433;48.730;9.108;2023-03-03T10:34:43;43.30;;;24.80;;
6791;SDS011;3433;48.730;9.108;2023-03-03T10:37:41;44.00;;;22.60;;
6791;SDS011;3433;48.730;9.108;2023-03-03T10:40:37;39.17;;;23.20;;
6791;SDS011;3433;48.730;9.108;2023-03-03T10:43:48;42.57;;;23.37;;
6791;SDS011;3433;48.730;9.108;2023-03-03T10:46:45;42.10;;;21.97;;
6791;SDS011;3433;48.730;9.108;2023-03-03T10:49:47;39.60;;;22.47;;
6791;SDS011;3433;48.730;9.108;2023-03-03T10:52:43;38.93;;;22.87;;
6791;SDS011;3433;48.730;9.108;2023-03-03T10:55:35;46.77;;;23.67;;
6791;SDS011;3433;48.730;9.108;2023-03-03T10:58:38;42.07;;;24.33;;
6791;SDS011;3433;48.730;9.108;2023-03-03T11:01:41;38.70;;;23.13;;
6791;SDS011;3433;48.730;9.108;2023-03-03T11:04:39;46.00;;;23.93;;
6791;SDS011;3433;48.730;9.108;2023-03-03T11:07:34;43.33;;;24.23;;
6791;SDS011;3433;48.730;9.108;2023-03-03T11:10:29;40.00;;;23.37;;
6791;SDS011;3433;48.730;9.108;2023-03-03T11:13:27;38.03;;;23.00;;
6791;SDS011;3433;48.730;9.108;2023-03-03T11:19:42;41.83;;;23.60;;
6791;SDS011;3433;48.730;9.108;2023-03-03T11:22:42;39.97;;;21.90;;
6791;SDS011;3433;48.730;9.108;2023-03-03T11:25:39;39.30;;;22.70;;
6791;SDS011;3433;48.730;9.108;2023-03-03T11:28:37;44.90;;;23.57;;
6791;SDS011;3433;48.730;9.108;2023-03-03T11:31:37;42.63;;;23.03;;
6791;SDS011;3433;48.730;9.108;2023-03-03T11:34:40;39.00;;;23.43;;
6791;SDS011;3433;48.730;9.108;2023-03-03T11:37:37;39.47;;;22.93;;
6791;SDS011;3433;48.730;9.108;2023-03-03T11:40:34;36.63;;;22.33;;
6791;SDS011;3433;48.730;9.108;2023-03-03T11:43:29;47.80;;;24.37;;
6791;SDS011;3433;48.730;9.108;2023-03-03T11:46:23;37.10;;;23.97;;
6791;SDS011;3433;48.730;9.108;2023-03-03T11:49:13;42.13;;;24.70;;
6791;SDS011;3433;48.730;9.108;2023-03-03T11:52:13;42.23;;;23.23;;
6791;SDS011;3433;48.730;9.108;2023-03-03T11:55:12;39.60;;;24.73;;
6791;SDS011;3433;48.730;9.108;2023-03-03T11:58:05;39.23;;;23.47;;
6791;SDS011;3433;48.730;9.108;2023-03-03T12:00:58;44.70;;;24.87;;
6791;SDS011;3433;48.730;9.108;2023-03-03T12:03:52;41.27;;;25.00;;
6791;SDS011;3433;48.730;9.108;2023-03-03T12:06:47;41.10;;;24.50;;
6791;SDS011;3433;48.730;9.108;2023-03-03T12:09:50;40.03;;;23.97;;
6791;SDS011;3433;48.730;9.108;2023-03-03T12:12:42;47.40;;;24.57;;
6791;SDS011;3433;48.730;9.108;2023-03-03T12:15:32;39.67;;;23.10;;
6791;SDS011;3433;48.730;9.108;2023-03-03T12:18:30;46.73;;;24.50;;
6791;SDS011;3433;48.730;9.108;2023-03-03T12:21:36;43.40;;;24.10;;
6791;SDS011;3433;48.730;9.108;2023-03-03T12:24:41;44.83;;;23.70;;
6791;SDS011;3433;48.730;9.108;2023-03-03T12:27:46;40.97;;;23.83;;
6791;SDS011;3433;48.730;9.108;2023-03-03T12:30:59;39.90;;;22.83;;
6791;SDS011;3433;48.730;9.108;2023-03-03T12:33:55;38.80;;;22.60;;
6791;SDS011;3433;48.730;9.108;2023-03-03T12:36:55;39.40;;;22.87;;
6791;SDS011;3433;48.730;9.108;2023-03-03T12:39:53;36.60;;;23.10;;
6791;SDS011;3433;48.730;9.108;2023-03-03T12:42:51;36.80;;;23.27;;
6791;SDS011;3433;48.730;9.108;2023-03-03T12:45:54;35.90;;;22.03;;
6791;SDS011;3433;48.730;9.108;2023-03-03T12:48:48;39.37;;;22.00;;
6791;SDS011;3433;48.730;9.108;2023-03-03T12:51:41;37.03;;;21.70;;
6791;SDS011;3433;48.730;9.108;2023-03-03T12:54:43;37.10;;;22.67;;
6791;SDS011;3433;48.730;9.108;2023-03-03T12:57:41;37.20;;;23.03;;
6791;SDS011;3433;48.730;9.108;2023-03-03T13:00:39;37.27;;;23.47;;
6791;SDS011;3433;48.730;9.108;2023-03-03T13:03:37;35.67;;;21.77;;
6791;SDS011;3433;48.730;9.108;2023-03-03T13:06:29;35.80;;;21.13;;
6791;SDS011;3433;48.730;9.108;2023-03-03T13:09:22;33.57;;;22.20;;
6791;SDS011;3433;48.730;9.108;2023-03-03T13:15:30;33.70;;;22.27;;
6791;SDS011;3433;48.730;9.108;2023-03-03T13:18:29;32.23;;;22.43;;
6791;SDS011;3433;48.730;9.108;2023-03-03T13:21:29;36.50;;;22.50;;
6791;SDS011;3433;48.730;9.108;2023-03-03T13:24:21;36.97;;;22.67;;
6791;SDS011;3433;48.730;9.108;2023-03-03T13:27:13;32.37;;;22.53;;
6791;SDS011;3433;48.730;9.108;2023-03-03T13:30:13;38.30;;;23.30;;
6791;SDS011;3433;48.730;9.108;2023-03-03T13:33:06;34.93;;;23.20;;
6791;SDS011;3433;48.730;9.108;2023-03-03T13:35:57;38.87;;;22.73;;
6791;SDS011;3433;48.730;9.108;2023-03-03T13:38:47;33.47;;;20.17;;
6791;SDS011;3433;48.730;9.108;2023-03-03T13:41:38;37.70;;;23.27;;
6791;SDS011;3433;48.730;9.108;2023-03-03T13:44:33;35.30;;;21.37;;
6791;SDS011;3433;48.730;9.108;2023-03-03T13:47:24;33.03;;;21.23;;
6791;SDS011;3433;48.730;9.108;2023-03-03T13:50:21;39.60;;;22.50;;
6791;SDS011;3433;48.730;9.108;2023-03-03T13:53:26;34.50;;;22.93;;
6791;SDS011;3433;48.730;9.108;2023-03-03T13:56:32;36.37;;;22.73;;
6791;SDS011;3433;48.730;9.108;2023-03-03T13:59:29;34.43;;;21.43;;
6791;SDS011;3433;48.730;9.108;2023-03-03T14:02:31;37.70;;;23.20;;
6791;SDS011;3433;48.730;9.108;2023-03-03T14:05:34;33.23;;;22.37;;
6791;SDS011;3433;48.730;9.108;2023-03-03T14:08:25;35.13;;;22.40;;
6791;SDS011;3433;48.730;9.108;2023-03-03T14:11:33;36.50;;;23.97;;
6791;SDS011;3433;48.730;9.108;2023-03-03T14:14:32;40.23;;;22.80;;
6791;SDS011;3433;48.730;9.108;2023-03-03T14:17:28;34.80;;;20.13;;
6791;SDS011;3433;48.730;9.108;2023-03-03T14:20:21;43.83;;;23.00;;
6791;SDS011;3433;48.730;9.108;2023-03-03T14:23:13;31.77;;;20.90;;
6791;SDS011;3433;48.730;9.108;2023-03-03T14:26:07;38.80;;;22.33;;
6791;SDS011;3433;48.730;9.108;2023-03-03T14:29:03;37.67;;;23.70;;
6791;SDS011;3433;48.730;9.108;2023-03-03T14:32:19;34.60;;;21.40;;
6791;SDS011;3433;48.730;9.108;2023-03-03T14:35:12;37.93;;;22.80;;
6791;SDS011;3433;48.730;9.108;2023-03-03T14:38:05;36.20;;;23.50;;
6791;SDS011;3433;48.730;9.108;2023-03-03T14:41:07;38.87;;;23.00;;
6791;SDS011;3433;48.730;9.108;2023-03-03T14:44:00;36.13;;;21.43;;
6791;SDS011;3433;48.730;9.108;2023-03-03T14:47:19;37.13;;;21.93;;
6791;SDS011;3433;48.730;9.108;2023-03-03T14:50:27;39.33;;;22.40;;
6791;SDS011;3433;48.730;9.108;2023-03-03T14:53:22;37.53;;;22.03;;
6791;SDS011;3433;48.730;9.108;2023-03-03T14:56:22;37.97;;;23.77;;
6791;SDS011;3433;48.730;9.108;2023-03-03T14:59:15;38.23;;;22.07;;
6791;SDS011;3433;48.730;9.108;2023-03-03T15:05:28;34.30;;;21.50;;
6791;SDS011;3433;48.730;9.108;2023-03-03T15:08:21;37.90;;;23.00;;
6791;SDS011;3433;48.730;9.108;2023-03-03T15:11:18;40.37;;;22.77;;
6791;SDS011;3433;48.730;9.108;2023-03-03T15:14:13;38.83;;;23.83;;
6791;SDS011;3433;48.730;9.108;2023-03-03T15:17:16;36.03;;;22.93;;
6791;SDS011;3433;48.730;9.108;2023-03-03T15:20:15;47.43;;;24.03;;
6791;SDS011;3433;48.730;9.108;2023-03-03T15:23:13;36.80;;;22.03;;
6791;SDS011;3433;48.730;9.108;2023-03-03T15:26:27;35.27;;;22.13;;
6791;SDS011;3433;48.730;9.108;2023-03-03T15:29:21;42.27;;;24.50;;
6791;SDS011;3433;48.730;9.108;2023-03-03T15:32:16;40.63;;;22.37;;
6791;SDS011;3433;48.730;9.108;2023-03-03T15:35:14;36.10;;;22.47;;
6791;SDS011;3433;48.730;9.108;2023-03-03T15:38:13;36.03;;;22.10;;
6791;SDS011;3433;48.730;9.108;2023-03-03T15:41:16;38.13;;;21.97;;
6791;SDS011;3433;48.730;9.108;2023-03-03T15:44:13;41.03;;;23.10;;
6791;SDS011;3433;48.730;9.108;2023-03-03T15:47:10;35.63;;;22.63;;
6791;SDS011;3433;48.730;9.108;2023-03-03T15:50:20;39.97;;;23.97;;
6791;SDS011;3433;48.730;9.108;2023-03-03T15:53:22;42.17;;;22.57;;
6791;SDS011;3433;48.730;9.108;2023-03-03T15:56:24;39.63;;;22.73;;
6791;SDS011;3433;48.730;9.108;2023-03-03T15:59:34;39.07;;;23.03;;
6791;SDS011;3433;48.730;9.108;2023-03-03T16:02:38;40.97;;;22.80;;
6791;SDS011;3433;48.730;9.108;2023-03-03T16:05:36;44.63;;;24.60;;
6791;SDS011;3433;48.730;9.108;2023-03-03T16:08:33;46.67;;;23.60;;
6791;SDS011;3433;48.730;9.108;2023-03-03T16:11:32;39.60;;;22.00;;
6791;SDS011;3433;48.730;9.108;2023-03-03T16:14:33;39.27;;;23.13;;
6791;SDS011;3433;48.730;9.108;2023-03-03T16:17:35;40.73;;;22.20;;
6791;SDS011;3433;48.730;9.108;2023-03-03T16:20:28;41.07;;;21.57;;
6791;SDS011;3433;48.730;9.108;2023-03-03T16:23:26;42.53;;;23.50;;
6791;SDS011;3433;48.730;9.108;2023-03-03T16:26:31;42.57;;;23.70;;
6791;SDS011;3433;48.730;9.108;2023-03-03T16:29:30;43.73;;;23.90;;
6791;SDS011;3433;48.730;9.108;2023-03-03T16:32:26;46.70;;;23.93;;
6791;SDS011;3433;48.730;9.108;2023-03-03T16:35:23;38.60;;;22.40;;
6791;SDS011;3433;48.730;9.108;2023-03-03T16:38:15;42.97;;;23.83;;
6791;SDS011;3433;48.730;9.108;2023-03-03T16:41:09;42.90;;;22.70;;
6791;SDS011;3433;48.730;9.108;2023-03-03T16:44:01;44.60;;;25.67;;
6791;SDS011;3433;48.730;9.108;2023-03-03T16:46:55;41.70;;;23.10;;
6791;SDS011;3433;48.730;9.108;2023-03-03T16:50:02;42.10;;;23.63;;
6791;SDS011;3433;48.730;9.108;2023-03-03T16:53:04;40.60;;;23.30;;
6791;SDS011;3433;48.730;9.108;2023-03-03T16:56:02;41.90;;;23.20;;
6791;SDS011;3433;48.730;9.108;2023-03-03T17:02:13;41.30;;;22.80;;
6791;SDS011;3433;48.730;9.108;2023-03-03T17:05:18;42.73;;;23.00;;
6791;SDS011;3433;48.730;9.108;2023-03-03T17:08:20;46.63;;;24.10;;
6791;SDS011;3433;48.730;9.108;2023-03-03T17:11:20;43.87;;;22.83;;
6791;SDS011;3433;48.730;9.108;2023-03-03T17:14:19;44.70;;;23.13;;
6791;SDS011;3433;48.730;9.108;2023-03-03T17:17:24;43.97;;;24.47;;
6791;SDS011;3433;48.730;9.108;2023-03-03T17:20:34;41.30;;;22.87;;
6791;SDS011;3433;48.730;9.108;2023-03-03T17:23:46;38.60;;;21.00;;
6791;SDS011;3433;48.730;9.108;2023-03-03T17:26:48;41.83;;;21.27;;
6791;SDS011;3433;48.730;9.108;2023-03-03T17:29:58;41.90;;;23.80;;
6791;SDS011;3433;48.730;9.108;2023-03-03T17:32:52;50.97;;;25.77;;
6791;SDS011;3433;48.730;9.108;2023-03-03T17:39:12;82.03;;;35.60;;
6791;SDS011;3433;48.730;9.108;2023-03-03T17:42:10;53.17;;;27.70;;
6791;SDS011;3433;48.730;9.108;2023-03-03T17:45:06;51.13;;;24.40;;
6791;SDS011;3433;48.730;9.108;2023-03-03T17:48:05;48.53;;;23.73;;
6791;SDS011;3433;48.730;9.108;2023-03-03T17:51:14;49.17;;;25.90;;
6791;SDS011;3433;48.730;9.108;2023-03-03T17:54:35;61.23;;;31.93;;
6791;SDS011;3433;48.730;9.108;2023-03-03T17:57:44;54.00;;;28.03;;
6791;SDS011;3433;48.730;9.108;2023-03-03T18:00:46;40.70;;;23.10;;